Time;durP1;ratioP1;P1;durP2;ratioP2;P2;SDS_P1;SDS_P2;PMS_P1;PMS_P2;Temp;Humidity;BMP_temperature;BMP_pressure;BME280_temperature;BME280_humidity;BME280_pressure;Samples;Min_cycle;Max_cycle;Signal;HPM_P1;HPM_P2
2022/03/05 00:08:34;;;;;;;;;;;;;;;4.87;54.48;99846.09;5205163;27;36403;-92
2022/03/05 00:48:29;;;;;;;;;;;;;;;4.72;56.55;99838.22;5312630;27;33966;-92
2022/03/05 00:51:00;;;;;;;;;;;;;;;4.44;57.15;99825.84;5320982;27;34227;-92
2022/03/05 00:53:28;;;;;;;;;;;;;;;4.48;57.33;99831.91;5314897;27;33003;-93
2022/03/05 00:55:57;;;;;;;;;;;;;;;4.41;57.53;99822.38;5313928;27;33861;-91
2022/03/05 00:58:26;;;;;;;;;;;;;;;4.53;57.26;99822.56;5315031;27;33806;-92
2022/03/05 01:00:57;;;;;;;;;;;;;;;4.45;57.32;99821.59;5338789;26;34308;-93
2022/03/05 01:12:55;;;;;;;;;;;;;;;4.27;57.00;99812.78;5312259;27;35703;-92
2022/03/05 01:15:24;;;;;;;;;;;;;;;4.45;56.06;99819.88;5318585;27;31606;-91
2022/03/05 01:17:54;;;;;;;;;;;;;;;4.36;56.07;99816.31;5310505;27;32527;-92
2022/03/05 01:20:22;;;;;;;;;;;;;;;4.54;55.42;99815.69;5314138;27;33677;-91
2022/03/05 01:22:51;;;;;;;;;;;;;;;4.60;54.93;99819.22;5307778;27;32364;-90
2022/03/05 01:25:19;;;;;;;;;;;;;;;4.39;55.59;99813.78;5292711;27;32857;-92
2022/03/05 01:27:48;;;;;;;;;;;;;;;4.24;55.52;99811.88;5297622;27;34645;-91
2022/03/05 01:30:16;;;;;;;;;;;;;;;4.17;56.03;99810.91;5290627;27;34718;-91
2022/03/05 01:32:45;;;;;;;;;;;;;;;4.45;55.07;99813.88;5291877;27;32451;-91
2022/03/05 01:35:15;;;;;;;;;;;;;;;4.46;54.93;99818.16;5292024;27;33221;-91
2022/03/05 01:37:44;;;;;;;;;;;;;;;4.36;55.14;99819.75;5290410;27;34374;-92
2022/03/05 01:40:13;;;;;;;;;;;;;;;4.42;54.79;99811.25;5298753;27;34580;-91
2022/03/05 01:42:41;;;;;;;;;;;;;;;4.42;54.65;99809.56;5291639;27;33293;-92
2022/03/05 01:45:11;;;;;;;;;;;;;;;4.11;55.78;99815.97;5294255;27;33533;-91
2022/03/05 01:47:39;;;;;;;;;;;;;;;4.22;55.53;99813.56;5295135;27;33273;-92
2022/03/05 01:50:09;;;;;;;;;;;;;;;4.22;55.51;99809.28;5315037;27;33858;-92
2022/03/05 01:52:39;;;;;;;;;;;;;;;4.25;55.50;99818.72;5323289;27;34175;-91
2022/03/05 01:55:08;;;;;;;;;;;;;;;4.11;55.95;99818.53;5295379;27;32052;-91
2022/03/05 01:57:36;;;;;;;;;;;;;;;4.33;55.45;99816.28;5315104;27;33865;-92
2022/03/05 02:00:06;;;;;;;;;;;;;;;4.39;55.20;99819.78;5313742;27;34133;-92
2022/03/05 02:02:39;;;;;;;;;;;;;;;4.27;55.56;99827.31;5312580;27;33977;-92
2022/03/05 02:05:09;;;;;;;;;;;;;;;4.10;56.21;99818.50;5320345;27;33358;-92
2022/03/05 02:07:38;;;;;;;;;;;;;;;3.93;56.53;99821.69;5319270;27;34265;-91
2022/03/05 02:10:08;;;;;;;;;;;;;;;3.85;56.95;99816.44;5313763;27;34698;-91
2022/03/05 02:12:38;;;;;;;;;;;;;;;3.83;56.94;99822.38;5294913;27;33122;-92
2022/03/05 02:15:07;;;;;;;;;;;;;;;3.69;57.45;99831.56;5294795;27;33531;-91
2022/03/05 02:17:36;;;;;;;;;;;;;;;3.82;56.95;99829.22;5295168;27;32112;-92
2022/03/05 02:20:05;;;;;;;;;;;;;;;3.68;57.52;99829.84;5321383;27;34412;-92
2022/03/05 02:22:35;;;;;;;;;;;;;;;3.49;58.27;99836.34;5314889;27;34355;-92
2022/03/05 02:25:04;;;;;;;;;;;;;;;3.79;57.22;99841.13;5314711;27;33161;-93
2022/03/05 02:27:33;;;;;;;;;;;;;;;3.65;57.71;99843.47;5314487;27;34251;-91
2022/03/05 02:30:05;;;;;;;;;;;;;;;3.66;57.50;99841.78;5314459;27;34091;-92
2022/03/05 02:32:34;;;;;;;;;;;;;;;3.52;57.79;99838.97;5320995;27;34021;-91
2022/03/05 02:35:03;;;;;;;;;;;;;;;3.59;57.89;99846.78;5314006;27;33509;-91
2022/03/05 02:37:31;;;;;;;;;;;;;;;3.66;57.55;99837.50;5295256;27;34210;-92
2022/03/05 02:40:01;;;;;;;;;;;;;;;3.66;57.57;99842.63;5295494;27;33255;-92
2022/03/05 02:42:30;;;;;;;;;;;;;;;3.58;57.81;99836.50;5295399;27;33351;-90
2022/03/05 02:44:58;;;;;;;;;;;;;;;3.23;58.54;99841.84;5321037;27;33097;-91
2022/03/05 02:47:27;;;;;;;;;;;;;;;3.57;57.96;99840.75;5296703;27;34018;-93
2022/03/05 02:49:55;;;;;;;;;;;;;;;3.74;57.22;99848.75;5314341;27;34314;-91
2022/03/05 02:52:24;;;;;;;;;;;;;;;3.78;56.93;99842.81;5316956;27;34111;-91
2022/03/05 02:54:52;;;;;;;;;;;;;;;3.66;57.15;99847.75;5315224;27;33495;-94
2022/03/05 02:57:22;;;;;;;;;;;;;;;3.58;57.46;99839.06;5315136;27;33838;-92
2022/03/05 02:59:50;;;;;;;;;;;;;;;3.56;57.22;99843.31;5320628;27;34186;-91
2022/03/05 03:02:19;;;;;;;;;;;;;;;3.66;57.03;99847.75;5314358;27;33698;-92
2022/03/05 03:04:48;;;;;;;;;;;;;;;3.35;57.95;99844.62;5314402;27;33983;-93
2022/03/05 03:07:17;;;;;;;;;;;;;;;3.52;57.27;99844.09;5294858;27;33035;-92
2022/03/05 03:09:45;;;;;;;;;;;;;;;3.67;56.66;99839.22;5321171;27;34957;-91
2022/03/05 03:12:17;;;;;;;;;;;;;;;3.44;57.23;99843.09;5314554;27;33658;-91
2022/03/05 03:14:47;;;;;;;;;;;;;;;3.54;56.96;99842.41;5315194;27;33233;-91
2022/03/05 03:17:17;;;;;;;;;;;;;;;3.50;57.04;99848.31;5295607;27;32365;-93
2022/03/05 03:19:45;;;;;;;;;;;;;;;3.58;56.60;99837.38;5315459;27;33732;-93
2022/03/05 03:22:14;;;;;;;;;;;;;;;3.73;56.21;99847.03;5315249;27;34404;-91
2022/03/05 03:24:43;;;;;;;;;;;;;;;3.46;56.96;99841.44;5321236;27;33338;-91
2022/03/05 03:27:11;;;;;;;;;;;;;;;3.60;56.57;99843.41;5315288;27;34550;-92
2022/03/05 03:29:40;;;;;;;;;;;;;;;3.64;56.54;99842.59;5314935;27;34584;-92
2022/03/05 03:32:10;;;;;;;;;;;;;;;3.56;56.65;99841.59;5315174;27;34544;-93
2022/03/05 03:34:38;;;;;;;;;;;;;;;3.64;56.34;99844.28;5296997;27;33496;-91
2022/03/05 03:37:07;;;;;;;;;;;;;;;3.68;56.40;99842.66;5323293;27;33561;-91
2022/03/05 03:39:36;;;;;;;;;;;;;;;3.78;55.99;99844.53;5315242;27;34448;-92
2022/03/05 03:42:04;;;;;;;;;;;;;;;3.64;56.47;99834.88;5314941;27;34894;-90
2022/03/05 03:44:33;;;;;;;;;;;;;;;3.72;56.33;99839.28;5315176;27;33720;-92
2022/03/05 03:47:02;;;;;;;;;;;;;;;3.71;56.07;99846.13;5315246;27;33833;-91
2022/03/05 03:49:32;;;;;;;;;;;;;;;3.59;56.10;99845.91;5321110;27;33685;-91
2022/03/05 03:52:01;;;;;;;;;;;;;;;3.63;56.22;99846.00;5316016;27;34136;-92
2022/03/05 03:54:29;;;;;;;;;;;;;;;3.59;56.28;99838.22;5315672;27;33954;-91
2022/03/05 03:56:58;;;;;;;;;;;;;;;3.65;56.05;99848.59;5317631;27;33996;-91
2022/03/05 03:59:28;;;;;;;;;;;;;;;3.70;55.81;99841.84;5298100;27;33640;-91
2022/03/05 04:01:57;;;;;;;;;;;;;;;3.48;56.28;99837.16;5321112;27;34216;-91
2022/03/05 04:04:26;;;;;;;;;;;;;;;3.44;56.42;99843.94;5319296;27;33543;-92
2022/03/05 04:09:42;;;;;;;;;;;;;;;3.65;55.80;99838.34;5315260;27;34174;-92
2022/03/05 04:12:11;;;;;;;;;;;;;;;3.60;55.86;99840.81;5315241;27;35331;-92
2022/03/05 04:14:39;;;;;;;;;;;;;;;3.56;55.70;99841.59;5316455;27;33345;-93
2022/03/05 04:17:09;;;;;;;;;;;;;;;3.63;55.64;99842.59;5326254;27;34099;-90
2022/03/05 04:19:37;;;;;;;;;;;;;;;3.65;55.35;99843.47;5297203;27;34154;-91
2022/03/05 04:22:07;;;;;;;;;;;;;;;3.74;55.15;99848.75;5319286;27;34845;-91
2022/03/05 04:24:36;;;;;;;;;;;;;;;3.61;55.44;99849.37;5317534;27;34939;-91
2022/03/05 04:27:05;;;;;;;;;;;;;;;3.56;55.59;99861.28;5315118;27;34065;-91
2022/03/05 04:29:33;;;;;;;;;;;;;;;3.73;54.85;99856.44;5319956;27;33999;-93
2022/03/05 04:32:02;;;;;;;;;;;;;;;3.33;55.90;99859.13;5315111;27;34107;-92
2022/03/05 04:34:31;;;;;;;;;;;;;;;3.33;55.70;99864.25;5314930;27;33516;-92
2022/03/05 04:36:59;;;;;;;;;;;;;;;3.42;55.64;99863.56;5315035;27;33717;-91
2022/03/05 04:39:29;;;;;;;;;;;;;;;3.62;54.83;99861.34;5315100;27;34201;-91
2022/03/05 04:41:57;;;;;;;;;;;;;;;3.49;55.15;99864.56;5320739;27;33910;-91
2022/03/05 04:44:26;;;;;;;;;;;;;;;3.55;54.77;99867.22;5317456;27;33917;-91
2022/03/05 04:46:56;;;;;;;;;;;;;;;3.66;54.55;99872.56;5295034;27;33754;-92
2022/03/05 04:49:25;;;;;;;;;;;;;;;3.55;54.73;99869.78;5315010;27;34181;-91
2022/03/05 04:51:53;;;;;;;;;;;;;;;3.44;54.95;99873.88;5294946;27;32922;-91
2022/03/05 04:54:24;;;;;;;;;;;;;;;3.54;54.75;99858.66;5320778;27;32974;-91
2022/03/05 04:56:53;;;;;;;;;;;;;;;3.46;54.90;99869.66;5321721;27;37203;-92
2022/03/05 04:59:22;;;;;;;;;;;;;;;3.61;54.51;99864.78;5315344;27;33890;-92
2022/03/05 05:01:52;;;;;;;;;;;;;;;3.53;54.89;99869.78;5315208;27;34349;-92
2022/03/05 05:04:20;;;;;;;;;;;;;;;3.58;54.57;99864.72;5316171;27;33426;-91
2022/03/05 05:06:49;;;;;;;;;;;;;;;3.47;54.96;99871.34;5315804;27;33972;-91
2022/03/05 05:09:17;;;;;;;;;;;;;;;3.53;54.85;99868.91;5321114;27;35078;-91
2022/03/05 05:11:46;;;;;;;;;;;;;;;3.51;54.67;99862.88;5314923;27;34679;-91
2022/03/05 05:14:16;;;;;;;;;;;;;;;3.61;54.54;99872.47;5314990;27;33542;-93
2022/03/05 05:16:46;;;;;;;;;;;;;;;3.72;54.20;99870.06;5314879;27;34220;-91
2022/03/05 05:19:27;;;;;;;;;;;;;;;3.69;54.10;99876.03;5314693;27;34372;-91
2022/03/05 05:21:56;;;;;;;;;;;;;;;3.60;54.31;99876.75;5321359;27;35113;-91
2022/03/05 05:24:25;;;;;;;;;;;;;;;3.58;54.68;99878.41;5318898;27;32730;-91
2022/03/05 05:26:54;;;;;;;;;;;;;;;3.77;54.19;99883.84;5314792;27;34103;-93
2022/03/05 05:29:24;;;;;;;;;;;;;;;3.75;54.13;99888.13;5315320;27;34984;-92
2022/03/05 05:32:10;;;;;;;;;;;;;;;3.64;54.28;99878.50;5315294;27;34456;-92
2022/03/05 05:34:39;;;;;;;;;;;;;;;3.81;53.83;99880.50;5315262;27;33237;-91
2022/03/05 05:37:14;;;;;;;;;;;;;;;3.75;54.01;99881.28;5321053;27;34197;-93
2022/03/05 05:39:43;;;;;;;;;;;;;;;3.78;54.08;99888.16;5314083;27;34888;-92
2022/03/05 05:42:13;;;;;;;;;;;;;;;3.85;53.65;99888.28;5314799;27;34519;-93
2022/03/05 05:44:44;;;;;;;;;;;;;;;3.77;53.83;99892.44;5317154;27;34149;-91
2022/03/05 05:47:13;;;;;;;;;;;;;;;3.80;53.54;99889.06;5320220;27;33902;-91
2022/03/05 05:49:41;;;;;;;;;;;;;;;3.76;53.79;99894.97;5317084;27;33833;-91
2022/03/05 05:52:11;;;;;;;;;;;;;;;3.69;54.07;99900.81;5328362;27;33897;-93
2022/03/05 05:57:23;;;;;;;;;;;;;;;4.02;53.04;99895.41;5316226;27;35254;-92
2022/03/05 05:59:53;;;;;;;;;;;;;;;3.88;53.36;99896.88;5314098;27;33486;-92
2022/03/05 06:02:21;;;;;;;;;;;;;;;3.87;53.58;99898.59;5314101;27;34859;-92
2022/03/05 06:04:50;;;;;;;;;;;;;;;3.85;53.74;99905.41;5320574;27;33776;-92
2022/03/05 06:07:19;;;;;;;;;;;;;;;3.85;53.96;99907.97;5315207;27;34353;-94
2022/03/05 06:09:47;;;;;;;;;;;;;;;4.07;53.03;99911.75;5314492;27;33744;-91
2022/03/05 06:12:17;;;;;;;;;;;;;;;4.07;52.84;99906.62;5314866;27;34008;-91
2022/03/05 06:14:46;;;;;;;;;;;;;;;3.98;53.61;99914.16;5317432;27;33392;-92
2022/03/05 06:17:15;;;;;;;;;;;;;;;3.92;53.13;99917.50;5323818;27;33606;-91
2022/03/05 06:19:44;;;;;;;;;;;;;;;4.04;53.16;99916.84;5314210;27;36102;-91
2022/03/05 06:22:12;;;;;;;;;;;;;;;4.11;53.00;99913.53;5313879;27;34219;-92
2022/03/05 06:24:41;;;;;;;;;;;;;;;4.22;52.50;99927.41;5316934;27;33315;-91
2022/03/05 06:27:10;;;;;;;;;;;;;;;4.31;52.44;99930.97;5314461;27;34320;-91
2022/03/05 06:29:40;;;;;;;;;;;;;;;4.34;52.22;99933.59;5320043;27;33813;-93
2022/03/05 06:32:10;;;;;;;;;;;;;;;4.40;52.11;99931.97;5315459;27;33984;-92
2022/03/05 06:34:40;;;;;;;;;;;;;;;4.46;52.02;99931.19;5315181;27;33054;-92
2022/03/05 06:37:09;;;;;;;;;;;;;;;4.59;50.97;99928.00;5315628;27;33555;-93
2022/03/05 06:39:37;;;;;;;;;;;;;;;4.38;51.97;99933.66;5322285;27;34076;-91
2022/03/05 06:42:07;;;;;;;;;;;;;;;4.46;51.45;99939.78;5321562;27;33557;-91
2022/03/05 06:44:35;;;;;;;;;;;;;;;4.54;51.77;99933.88;5315815;27;33377;-92
2022/03/05 06:47:05;;;;;;;;;;;;;;;4.49;51.93;99936.38;5315245;27;33821;-93
2022/03/05 06:49:33;;;;;;;;;;;;;;;4.60;51.32;99934.00;5315527;27;34007;-92
2022/03/05 06:52:03;;;;;;;;;;;;;;;4.64;51.51;99934.06;5315428;27;35004;-91
2022/03/05 06:54:32;;;;;;;;;;;;;;;4.85;50.04;99936.06;5322574;27;32923;-92
2022/03/05 06:57:00;;;;;;;;;;;;;;;4.82;50.49;99935.16;5315507;27;34050;-93
2022/03/05 06:59:29;;;;;;;;;;;;;;;4.84;50.62;99938.63;5316556;27;34177;-90
2022/03/05 07:01:57;;;;;;;;;;;;;;;4.81;50.29;99934.31;5318929;27;34272;-95
2022/03/05 07:04:26;;;;;;;;;;;;;;;4.86;50.33;99939.50;5315842;27;33665;-91
2022/03/05 07:06:55;;;;;;;;;;;;;;;5.00;49.68;99934.53;5296935;27;33095;-91
2022/03/05 07:09:25;;;;;;;;;;;;;;;5.01;49.63;99932.00;5321413;27;34310;-92
2022/03/05 07:11:53;;;;;;;;;;;;;;;4.98;49.38;99937.09;5315375;27;34153;-92
2022/03/05 07:14:22;;;;;;;;;;;;;;;5.11;48.88;99938.13;5315479;27;33728;-91
2022/03/05 07:16:50;;;;;;;;;;;;;;;5.02;49.67;99938.84;5315631;27;34859;-91
2022/03/05 07:19:19;;;;;;;;;;;;;;;5.13;49.45;99939.87;5319855;27;34135;-91
2022/03/05 07:21:47;;;;;;;;;;;;;;;5.29;48.00;99943.50;5321965;27;34152;-91
2022/03/05 07:24:16;;;;;;;;;;;;;;;5.49;47.36;99946.31;5315022;27;33632;-92
2022/03/05 07:26:46;;;;;;;;;;;;;;;5.74;45.89;99944.00;5314699;27;33729;-91
2022/03/05 07:29:14;;;;;;;;;;;;;;;5.64;46.18;99944.75;5315126;27;34125;-93
2022/03/05 07:31:43;;;;;;;;;;;;;;;5.14;47.64;99944.16;5314185;27;34216;-92
2022/03/05 07:34:11;;;;;;;;;;;;;;;5.45;47.17;99944.53;5321148;27;33420;-93
2022/03/05 07:36:40;;;;;;;;;;;;;;;5.67;46.61;99947.34;5315297;27;34054;-91
2022/03/05 07:39:08;;;;;;;;;;;;;;;5.45;46.53;99948.81;5315673;27;34397;-91
2022/03/05 07:41:37;;;;;;;;;;;;;;;5.98;45.23;99944.25;5315354;27;34226;-91
2022/03/05 07:44:10;;;;;;;;;;;;;;;5.94;45.07;99946.78;5321624;27;33067;-92
2022/03/05 07:46:39;;;;;;;;;;;;;;;6.08;44.71;99950.38;5315341;27;33730;-91
2022/03/05 07:49:08;;;;;;;;;;;;;;;5.86;45.85;99951.84;5315638;27;34189;-91
2022/03/05 07:51:37;;;;;;;;;;;;;;;5.52;46.95;99948.03;5315606;27;33831;-92
2022/03/05 07:54:06;;;;;;;;;;;;;;;5.24;47.29;99946.84;5315246;27;32917;-94
2022/03/05 07:56:34;;;;;;;;;;;;;;;5.30;47.99;99955.50;5318485;27;34339;-91
2022/03/05 07:59:03;;;;;;;;;;;;;;;4.99;49.06;99961.09;5321674;27;34402;-91
2022/03/05 08:01:33;;;;;;;;;;;;;;;5.03;48.75;99968.88;5315112;27;34187;-91
2022/03/05 08:04:02;;;;;;;;;;;;;;;4.66;50.17;99977.75;5315517;27;33329;-90
2022/03/05 08:06:30;;;;;;;;;;;;;;;5.35;48.27;99968.44;5315139;27;34448;-91
2022/03/05 08:12:25;;;;;;;;;;;;;;;4.31;51.00;99978.06;5314369;27;35420;-94
2022/03/05 08:15:09;;;;;;;;;;;;;;;4.83;50.52;99978.00;5315371;27;33103;-91
2022/03/05 08:18:06;;;;;;;;;;;;;;;4.72;50.65;99966.72;5301214;27;35596;-92
2022/03/05 08:20:49;;;;;;;;;;;;;;;5.07;49.88;99964.63;5321340;27;34108;-91
2022/03/05 08:23:35;;;;;;;;;;;;;;;4.60;51.11;99973.38;5294812;27;33185;-93
2022/03/05 08:26:34;;;;;;;;;;;;;;;4.92;50.27;99970.44;5315350;27;33851;-91
2022/03/05 08:32:12;;;;;;;;;;;;;;;4.77;51.17;99975.34;5315634;27;36180;-92
2022/03/05 08:34:59;;;;;;;;;;;;;;;5.08;50.41;99974.09;5315832;27;33726;-90
2022/03/05 08:37:36;;;;;;;;;;;;;;;5.19;50.23;99977.66;5316036;27;34071;-93
2022/03/05 08:40:11;;;;;;;;;;;;;;;5.07;50.72;99977.47;5315923;27;34936;-92
2022/03/05 08:42:40;;;;;;;;;;;;;;;4.43;52.60;99991.09;5315499;27;34264;-91
2022/03/05 08:45:16;;;;;;;;;;;;;;;4.47;52.99;99992.03;5320352;27;35192;-90
2022/03/05 08:47:47;;;;;;;;;;;;;;;4.28;53.68;99986.59;5316574;27;33331;-92
2022/03/05 08:50:32;;;;;;;;;;;;;;;4.58;52.76;99981.91;5316235;27;34482;-94
2022/03/05 08:56:19;;;;;;;;;;;;;;;5.11;51.50;99985.25;5315418;27;36484;-91
2022/03/05 08:59:09;;;;;;;;;;;;;;;4.96;51.57;99982.50;5313797;27;34068;-91
2022/03/05 09:01:59;;;;;;;;;;;;;;;5.55;49.87;99987.53;5314939;27;33685;-91
2022/03/05 09:04:34;;;;;;;;;;;;;;;5.42;50.25;99979.66;5295425;27;35607;-94
2022/03/05 09:07:26;;;;;;;;;;;;;;;5.68;48.74;99983.41;5320216;27;32375;-91
2022/03/05 09:10:05;;;;;;;;;;;;;;;6.03;47.12;99987.22;5320893;27;33794;-92
2022/03/05 09:12:45;;;;;;;;;;;;;;;5.91;48.44;99981.06;5295631;27;32674;-92
2022/03/05 09:15:19;;;;;;;;;;;;;;;6.33;46.25;99979.81;5315926;27;34741;-92
2022/03/05 09:21:56;;;;;;;;;;;;;;;5.37;48.22;99983.91;5279242;27;34275;-93
2022/03/05 09:27:45;;;;;;;;;;;;;;;6.44;45.42;99976.44;5314695;27;35069;-92
2022/03/05 09:30:28;;;;;;;;;;;;;;;6.52;44.91;99974.78;5315105;27;33308;-92
2022/03/05 09:33:02;;;;;;;;;;;;;;;7.12;44.09;99977.75;5315310;27;33143;-93
2022/03/05 09:35:41;;;;;;;;;;;;;;;7.53;42.33;99977.94;5313364;27;33980;-93
2022/03/05 09:38:21;;;;;;;;;;;;;;;7.37;42.64;99978.72;5315994;27;34206;-92
2022/03/05 09:41:07;;;;;;;;;;;;;;;6.74;43.44;99974.09;5320968;27;34895;-92
2022/03/05 09:43:37;;;;;;;;;;;;;;;7.50;41.29;99969.34;5299622;27;31850;-92
2022/03/05 10:16:38;;;;;;;;;;;;;;;7.05;38.17;99961.38;5329894;26;20284;-84
2022/03/05 10:19:16;;;;;;;;;;;;;;;7.52;37.88;99960.75;5331444;26;33466;-85
2022/03/05 10:21:55;;;;;;;;;;;;;;;7.13;38.16;99966.56;5336120;26;34144;-85
2022/03/05 10:24:30;;;;;;;;;;;;;;;8.07;37.20;99963.47;5342630;26;33678;-86
2022/03/05 10:26:59;;;;;;;;;;;;;;;7.86;36.52;99964.28;5335134;26;33275;-86
2022/03/05 10:29:29;;;;;;;;;;;;;;;7.49;36.91;99958.16;5335820;26;33229;-86
2022/03/05 10:32:01;;;;;;;;;;;;;;;7.63;37.11;99961.63;5336810;26;34242;-86
2022/03/05 10:34:31;;;;;;;;;;;;;;;7.41;37.10;99952.94;5339152;26;34377;-86
2022/03/05 10:37:00;;;;;;;;;;;;;;;7.64;37.28;99958.19;5358528;26;34764;-86
2022/03/05 10:39:29;;;;;;;;;;;;;;;7.63;36.78;99956.44;5316236;26;33447;-86
2022/03/05 10:42:00;;;;;;;;;;;;;;;7.84;37.23;99962.56;5336483;26;33620;-86
2022/03/05 10:44:28;;;;;;;;;;;;;;;7.88;37.30;99956.53;5336402;26;34467;-86
2022/03/05 10:46:57;;;;;;;;;;;;;;;8.30;36.11;99960.88;5337149;26;34325;-86
2022/03/05 10:49:28;;;;;;;;;;;;;;;8.46;35.53;99959.19;5342234;26;33210;-86
2022/03/05 10:52:05;;;;;;;;;;;;;;;8.23;36.25;99950.53;5336266;26;33394;-86
2022/03/05 10:54:38;;;;;;;;;;;;;;;8.92;34.43;99956.56;5336677;26;33974;-86
2022/03/05 10:57:08;;;;;;;;;;;;;;;8.00;35.45;99950.53;5335479;26;34755;-86
2022/03/05 10:59:38;;;;;;;;;;;;;;;7.87;35.33;99950.50;5336891;26;33026;-86
2022/03/05 11:02:06;;;;;;;;;;;;;;;8.22;34.96;99941.94;5336302;26;33640;-86
2022/03/05 11:04:37;;;;;;;;;;;;;;;7.31;36.75;99942.59;5342600;26;34777;-87
2022/03/05 11:07:05;;;;;;;;;;;;;;;6.99;36.98;99941.56;5336994;26;34072;-87
2022/03/05 11:09:35;;;;;;;;;;;;;;;7.35;36.56;99939.19;5316808;26;33177;-86
2022/03/05 11:12:04;;;;;;;;;;;;;;;7.81;35.68;99939.31;5337184;26;34804;-88
2022/03/05 11:14:33;;;;;;;;;;;;;;;7.51;36.65;99940.06;5337160;26;33981;-86
2022/03/05 11:17:01;;;;;;;;;;;;;;;6.80;37.63;99934.59;5318853;26;33381;-87
2022/03/05 11:19:30;;;;;;;;;;;;;;;6.61;37.79;99929.31;5314965;27;33777;-87
2022/03/05 11:22:00;;;;;;;;;;;;;;;7.04;37.50;99933.88;5314509;27;33420;-88
2022/03/05 11:24:29;;;;;;;;;;;;;;;7.14;37.78;99935.62;5314535;27;33966;-87
2022/03/05 11:26:57;;;;;;;;;;;;;;;7.56;36.91;99928.88;5314664;27;35020;-86
2022/03/05 11:29:54;;;;;;;;;;;;;;;7.30;37.02;99926.25;5316971;27;33340;-86
2022/03/05 11:32:23;;;;;;;;;;;;;;;7.79;35.89;99918.63;5321481;27;34817;-86
2022/03/05 11:34:53;;;;;;;;;;;;;;;8.32;35.41;99917.81;5314058;27;34333;-87
2022/03/05 11:37:32;;;;;;;;;;;;;;;7.67;36.16;99926.34;5314340;27;34890;-88
2022/03/05 11:40:01;;;;;;;;;;;;;;;7.39;36.55;99923.72;5313448;27;33548;-87
2022/03/05 11:42:30;;;;;;;;;;;;;;;7.36;36.75;99920.25;5314268;27;33729;-86
2022/03/05 11:44:59;;;;;;;;;;;;;;;7.65;36.40;99918.59;5313957;27;33884;-86
2022/03/05 11:47:29;;;;;;;;;;;;;;;7.97;35.87;99915.19;5319932;27;33902;-87
2022/03/05 11:50:13;;;;;;;;;;;;;;;7.50;36.26;99915.97;5314923;27;32950;-87
2022/03/05 11:53:12;;;;;;;;;;;;;;;7.75;36.21;99908.28;5314015;27;34996;-87
2022/03/05 11:55:42;;;;;;;;;;;;;;;7.47;37.42;99908.25;5313409;27;34256;-85
2022/03/05 11:58:30;;;;;;;;;;;;;;;8.15;35.87;99910.94;5313768;27;34855;-84
2022/03/05 12:00:58;;;;;;;;;;;;;;;8.02;35.48;99903.16;5314393;27;32734;-86
2022/03/05 12:03:38;;;;;;;;;;;;;;;8.24;35.19;99891.09;5314961;27;34285;-85
2022/03/05 12:06:10;;;;;;;;;;;;;;;8.33;35.40;99900.56;5321429;27;34089;-84
2022/03/05 12:08:44;;;;;;;;;;;;;;;7.14;37.20;99903.81;5318567;27;34274;-84
2022/03/05 12:11:14;;;;;;;;;;;;;;;7.57;37.03;99903.97;5314367;27;34261;-85
2022/03/05 12:13:43;;;;;;;;;;;;;;;7.40;37.39;99902.19;5315060;27;33263;-84
2022/03/05 12:16:15;;;;;;;;;;;;;;;7.95;36.35;99900.56;5314191;26;34034;-85
2022/03/05 12:18:44;;;;;;;;;;;;;;;8.22;36.17;99886.81;5314036;27;33580;-84
2022/03/05 12:21:12;;;;;;;;;;;;;;;8.05;36.46;99884.22;5321035;27;33188;-85
2022/03/05 12:23:41;;;;;;;;;;;;;;;8.23;36.27;99889.38;5314487;27;34139;-84
2022/03/05 12:26:09;;;;;;;;;;;;;;;8.46;35.77;99893.72;5314599;27;35194;-84
2022/03/05 12:28:42;;;;;;;;;;;;;;;8.88;34.01;99887.56;5314013;27;34351;-84
2022/03/05 12:31:16;;;;;;;;;;;;;;;8.11;35.21;99887.66;5314167;27;33544;-84
2022/03/05 12:33:48;;;;;;;;;;;;;;;8.44;34.58;99888.53;5321389;27;33760;-84
2022/03/05 12:36:22;;;;;;;;;;;;;;;8.47;34.89;99880.75;5321437;27;34011;-85
2022/03/05 12:38:54;;;;;;;;;;;;;;;7.99;35.89;99897.13;5314546;27;34251;-85
2022/03/05 12:41:24;;;;;;;;;;;;;;;8.45;34.73;99887.66;5313269;27;33209;-85
2022/03/05 12:43:54;;;;;;;;;;;;;;;8.31;34.50;99877.31;5314079;27;34308;-84
2022/03/05 12:46:24;;;;;;;;;;;;;;;8.42;34.40;99881.66;5312648;27;33627;-84
2022/03/05 12:48:52;;;;;;;;;;;;;;;8.19;34.73;99879.03;5319320;27;34370;-85
2022/03/05 12:51:21;;;;;;;;;;;;;;;8.07;34.98;99878.19;5313684;27;33397;-84
2022/03/05 12:53:58;;;;;;;;;;;;;;;7.84;35.83;99883.34;5314178;27;34486;-85
2022/03/05 12:56:26;;;;;;;;;;;;;;;8.07;35.67;99883.38;5313825;27;34771;-86
2022/03/05 12:58:57;;;;;;;;;;;;;;;8.74;34.25;99871.22;5313759;27;33909;-84
2022/03/05 13:01:27;;;;;;;;;;;;;;;8.25;34.62;99879.91;5318376;27;33433;-85
2022/03/05 13:03:56;;;;;;;;;;;;;;;8.77;34.15;99873.81;5320535;27;33840;-86
2022/03/05 13:06:25;;;;;;;;;;;;;;;8.70;33.84;99879.87;5313327;27;34330;-85
2022/03/05 13:08:53;;;;;;;;;;;;;;;8.54;34.45;99877.31;5311850;27;33348;-84
2022/03/05 13:11:22;;;;;;;;;;;;;;;8.51;34.18;99881.63;5312506;27;33880;-84
2022/03/05 13:13:52;;;;;;;;;;;;;;;8.76;34.07;99877.25;5312174;27;33816;-85
2022/03/05 13:16:22;;;;;;;;;;;;;;;8.37;34.52;99880.75;5319250;26;34784;-84
2022/03/05 13:18:55;;;;;;;;;;;;;;;8.85;33.84;99881.56;5313402;27;33782;-86
2022/03/05 13:21:24;;;;;;;;;;;;;;;8.29;34.97;99875.59;5313319;27;33920;-85
2022/03/05 13:23:52;;;;;;;;;;;;;;;8.08;34.98;99884.22;5314260;27;34846;-85
2022/03/05 13:26:22;;;;;;;;;;;;;;;7.65;35.49;99881.59;5314038;27;34679;-85
2022/03/05 13:28:50;;;;;;;;;;;;;;;8.02;34.65;99879.03;5320583;27;34162;-84
2022/03/05 13:31:19;;;;;;;;;;;;;;;7.89;35.04;99876.44;5299731;27;415898;-84
2022/03/05 13:33:50;;;;;;;;;;;;;;;7.80;35.24;99880.75;5313955;27;33873;-84
2022/03/05 13:36:22;;;;;;;;;;;;;;;7.48;35.66;99885.00;5314385;27;34004;-84
2022/03/05 13:38:51;;;;;;;;;;;;;;;7.82;34.99;99879.03;5314409;27;34104;-84
2022/03/05 13:41:21;;;;;;;;;;;;;;;7.39;35.89;99876.38;5317510;27;33216;-86
2022/03/05 13:43:50;;;;;;;;;;;;;;;7.23;36.21;99881.50;5321705;27;34019;-84
2022/03/05 13:46:19;;;;;;;;;;;;;;;7.42;35.98;99878.97;5314437;27;33971;-85
2022/03/05 13:48:49;;;;;;;;;;;;;;;7.46;35.65;99880.69;5314819;27;34261;-85
2022/03/05 13:51:19;;;;;;;;;;;;;;;8.23;34.10;99865.25;5314569;27;32299;-85
2022/03/05 13:53:54;;;;;;;;;;;;;;;7.85;34.65;99871.28;5315594;27;33868;-84
2022/03/05 13:56:23;;;;;;;;;;;;;;;7.89;34.79;99865.25;5321692;27;34158;-85
2022/03/05 13:58:52;;;;;;;;;;;;;;;8.38;33.95;99870.41;5315031;27;34750;-85
2022/03/05 14:01:38;;;;;;;;;;;;;;;8.21;33.55;99869.56;5314802;27;33291;-84
2022/03/05 14:04:12;;;;;;;;;;;;;;;7.95;33.89;99873.03;5315688;27;34036;-84
2022/03/05 14:06:47;;;;;;;;;;;;;;;7.74;34.55;99866.13;5315280;27;34147;-85
2022/03/05 14:09:23;;;;;;;;;;;;;;;7.63;35.25;99875.56;5315261;27;33898;-84
2022/03/05 14:12:01;;;;;;;;;;;;;;;6.91;36.52;99865.91;5321926;27;32921;-85
2022/03/05 14:14:40;;;;;;;;;;;;;;;7.32;36.17;99867.75;5321693;27;34606;-84
2022/03/05 14:17:08;;;;;;;;;;;;;;;8.05;34.64;99866.13;5314862;26;34278;-84
2022/03/05 14:19:38;;;;;;;;;;;;;;;7.82;35.19;99858.38;5314954;27;34168;-86
2022/03/05 14:22:07;;;;;;;;;;;;;;;7.98;34.67;99861.84;5315168;27;34238;-84
2022/03/05 14:24:36;;;;;;;;;;;;;;;8.24;34.44;99857.50;5314815;27;33617;-85
2022/03/05 14:27:09;;;;;;;;;;;;;;;8.42;33.72;99858.38;5321508;27;33942;-85
2022/03/05 14:29:37;;;;;;;;;;;;;;;8.40;33.91;99853.19;5315045;27;34192;-84
2022/03/05 14:32:06;;;;;;;;;;;;;;;7.93;34.48;99846.31;5314558;27;33436;-85
2022/03/05 14:34:35;;;;;;;;;;;;;;;8.36;34.00;99859.22;5315007;27;33877;-84
2022/03/05 14:37:05;;;;;;;;;;;;;;;7.90;34.46;99852.34;5317353;27;34141;-83
2022/03/05 14:39:33;;;;;;;;;;;;;;;8.24;33.75;99854.03;5321287;27;34068;-85
2022/03/05 14:42:03;;;;;;;;;;;;;;;8.22;34.30;99848.03;5320159;27;33799;-84
2022/03/05 14:44:31;;;;;;;;;;;;;;;8.43;34.08;99848.03;5314932;27;34843;-86
2022/03/05 14:47:00;;;;;;;;;;;;;;;8.78;33.35;99849.66;5314421;27;35020;-84
2022/03/05 14:49:29;;;;;;;;;;;;;;;8.48;33.41;99853.19;5314993;27;34234;-84
2022/03/05 14:51:57;;;;;;;;;;;;;;;8.20;34.15;99839.41;5314793;27;33026;-84
2022/03/05 14:54:27;;;;;;;;;;;;;;;7.82;35.24;99855.78;5321452;27;34838;-84
2022/03/05 14:56:55;;;;;;;;;;;;;;;8.21;34.59;99851.47;5317021;27;34003;-85
2022/03/05 14:59:25;;;;;;;;;;;;;;;7.58;35.50;99856.63;5314724;27;33770;-84
2022/03/05 15:01:54;;;;;;;;;;;;;;;8.16;34.56;99848.03;5314794;27;35260;-84
2022/03/05 15:04:23;;;;;;;;;;;;;;;8.19;34.19;99851.50;5314701;27;34889;-85